createdAt,value
2024-01-07T00:01:09.566Z,5.49
2024-01-07T00:03:42.294Z,5.48
2024-01-07T00:06:11.441Z,5.90
2024-01-07T00:08:39.067Z,5.62
2024-01-07T00:11:06.686Z,5.65
2024-01-07T00:13:34.298Z,5.63
2024-01-07T00:16:02.090Z,5.56
2024-01-07T00:18:29.923Z,5.48
2024-01-07T00:20:59.057Z,5.32
2024-01-07T00:23:26.687Z,5.61
2024-01-07T00:25:54.378Z,5.50
2024-01-07T00:28:22.067Z,5.24
2024-01-07T00:30:49.839Z,5.55
2024-01-07T00:33:17.564Z,5.58
2024-01-07T00:35:45.197Z,5.91
2024-01-07T00:38:14.179Z,5.82
2024-01-07T00:40:41.806Z,5.96
2024-01-07T00:43:09.496Z,5.43
2024-01-07T00:45:37.182Z,5.72
2024-01-07T00:48:05.733Z,5.43
2024-01-07T00:50:33.423Z,5.30
2024-01-07T00:53:01.080Z,5.82
2024-01-07T00:55:30.107Z,6.05
2024-01-07T00:57:57.766Z,5.88
2024-01-07T01:00:25.909Z,6.02
2024-01-07T01:02:53.565Z,5.85
2024-01-07T01:05:21.224Z,5.92
2024-01-07T01:07:48.984Z,5.81
2024-01-07T01:10:16.632Z,5.75
2024-01-07T01:12:45.821Z,5.88
2024-01-07T01:15:13.461Z,6.07
2024-01-07T01:17:41.129Z,5.88
2024-01-07T01:20:09.793Z,5.97
2024-01-07T01:22:37.434Z,5.95
2024-01-07T01:25:06.183Z,5.88
2024-01-07T01:27:33.856Z,5.80
2024-01-07T01:30:03.084Z,5.78
2024-01-07T01:32:30.829Z,5.76
2024-01-07T01:34:58.545Z,5.81
2024-01-07T01:37:26.189Z,6.14
2024-01-07T01:39:53.872Z,6.01
2024-01-07T01:42:21.525Z,5.97
2024-01-07T01:44:49.129Z,5.92
2024-01-07T01:47:18.361Z,5.73
2024-01-07T01:49:46.982Z,5.79
2024-01-07T01:52:15.678Z,5.67
2024-01-07T01:54:43.574Z,5.50
2024-01-07T01:57:20.283Z,5.70
2024-01-07T01:59:48.444Z,5.63
2024-01-07T02:02:17.995Z,5.55
2024-01-07T02:04:45.731Z,5.76
2024-01-07T02:07:13.440Z,5.31
2024-01-07T02:09:41.271Z,5.59
2024-01-07T02:12:09.095Z,5.37
2024-01-07T02:14:36.750Z,5.51
2024-01-07T02:17:04.573Z,5.66
2024-01-07T02:19:33.689Z,5.76
2024-01-07T02:22:01.449Z,5.68
2024-01-07T02:24:30.555Z,5.37
2024-01-07T02:26:58.279Z,5.36
2024-01-07T02:29:25.932Z,5.65
2024-01-07T02:31:53.551Z,5.83
2024-01-07T02:34:21.214Z,5.80
2024-01-07T02:36:48.933Z,5.51
2024-01-07T02:39:16.679Z,5.46
2024-01-07T02:41:45.955Z,5.67
2024-01-07T02:44:13.880Z,5.93
2024-01-07T02:46:41.498Z,5.60
2024-01-07T02:49:09.324Z,5.88
2024-01-07T02:51:37.109Z,5.59
2024-01-07T02:54:04.902Z,5.56
2024-01-07T02:56:32.566Z,5.57
2024-01-07T02:59:01.562Z,5.76
2024-01-07T03:01:29.323Z,5.88
2024-01-07T03:03:57.120Z,5.30
2024-01-07T03:06:27.707Z,5.49
2024-01-07T03:08:55.323Z,5.36
2024-01-07T03:11:23.012Z,5.24
2024-01-07T03:13:50.681Z,5.42
2024-01-07T03:16:23.924Z,5.64
2024-01-07T03:18:52.082Z,5.72
2024-01-07T03:21:20.915Z,5.62
2024-01-07T03:23:50.781Z,6.02
2024-01-07T03:26:19.676Z,5.85
2024-01-07T03:28:47.392Z,5.66
2024-01-07T03:31:16.771Z,5.87
2024-01-07T03:33:46.086Z,5.48
2024-01-07T03:36:15.161Z,5.29
2024-01-07T03:38:42.996Z,5.50
2024-01-07T03:41:17.190Z,4.97
2024-01-07T03:43:45.040Z,5.28
2024-01-07T03:46:12.720Z,5.28
2024-01-07T03:48:41.811Z,5.50
2024-01-07T03:51:11.013Z,5.67
2024-01-07T03:53:38.669Z,5.66
2024-01-07T03:56:07.052Z,5.70
2024-01-07T03:58:34.704Z,5.66
2024-01-07T04:01:02.527Z,5.38
2024-01-07T04:03:30.307Z,5.50
2024-01-07T04:05:58.140Z,5.54
2024-01-07T04:08:27.158Z,5.46
2024-01-07T04:10:54.806Z,5.61
2024-01-07T04:13:22.505Z,5.60
2024-01-07T04:15:50.204Z,5.37
2024-01-07T04:18:17.947Z,5.68
2024-01-07T04:20:45.643Z,5.61
2024-01-07T04:23:13.302Z,5.56
2024-01-07T04:25:42.314Z,5.35
2024-01-07T04:28:10.041Z,5.27
2024-01-07T04:30:37.824Z,5.32
2024-01-07T04:33:05.703Z,5.72
2024-01-07T04:35:33.349Z,5.40
2024-01-07T04:38:01.027Z,5.59
2024-01-07T04:40:28.650Z,5.72
2024-01-07T04:42:57.672Z,5.73
2024-01-07T04:45:25.400Z,5.88
2024-01-07T04:47:53.073Z,5.51
2024-01-07T04:50:21.307Z,5.56
2024-01-07T04:52:49.005Z,5.36
2024-01-07T04:55:16.807Z,5.49
2024-01-07T04:57:44.584Z,5.71
2024-01-07T05:00:14.622Z,5.68
2024-01-07T05:02:42.262Z,5.59
2024-01-07T05:05:10.122Z,5.68
2024-01-07T05:07:38.933Z,5.51
2024-01-07T05:10:07.745Z,5.34
2024-01-07T05:12:35.546Z,5.70
2024-01-07T05:15:03.728Z,5.74
2024-01-07T05:17:32.755Z,5.22
2024-01-07T05:20:00.486Z,5.55
2024-01-07T05:22:28.155Z,5.75
2024-01-07T05:24:55.800Z,5.49
2024-01-07T05:27:23.462Z,5.26
2024-01-07T05:29:51.132Z,5.54
2024-01-07T05:32:18.797Z,5.65
2024-01-07T05:34:47.835Z,5.42
2024-01-07T05:37:15.662Z,5.61
2024-01-07T05:39:43.489Z,5.69
2024-01-07T05:42:11.224Z,5.80
2024-01-07T05:44:38.952Z,5.61
2024-01-07T05:47:06.577Z,5.73
2024-01-07T05:49:34.528Z,5.74
2024-01-07T05:52:04.137Z,5.93
2024-01-07T05:54:32.518Z,5.82
2024-01-07T05:57:00.286Z,5.36
2024-01-07T05:59:27.982Z,5.80
2024-01-07T06:01:59.611Z,6.01
2024-01-07T06:04:27.390Z,6.02
2024-01-07T06:06:55.343Z,6.05
2024-01-07T06:09:24.449Z,5.71
2024-01-07T06:11:52.090Z,5.79
2024-01-07T06:14:19.764Z,5.81
2024-01-07T06:16:47.435Z,5.64
2024-01-07T06:19:16.616Z,5.05
2024-01-07T06:21:44.277Z,5.27
2024-01-07T06:24:12.012Z,5.14
2024-01-07T06:26:40.952Z,4.94
2024-01-07T06:29:08.746Z,4.69
2024-01-07T06:31:36.460Z,4.50
2024-01-07T06:34:04.327Z,4.33
2024-01-07T06:36:32.039Z,4.75
2024-01-07T06:38:59.621Z,4.43
2024-01-07T06:41:27.395Z,4.82
2024-01-07T06:43:56.379Z,4.33
2024-01-07T06:46:23.954Z,4.41
2024-01-07T06:48:52.078Z,5.01
2024-01-07T06:51:19.831Z,4.57
2024-01-07T06:53:47.464Z,4.67
2024-01-07T06:56:15.100Z,4.78
2024-01-07T06:58:42.725Z,5.10
2024-01-07T07:01:12.214Z,4.88
2024-01-07T07:03:41.503Z,5.04
2024-01-07T07:06:09.197Z,4.61
2024-01-07T07:08:36.817Z,4.39
2024-01-07T07:11:04.778Z,4.86
2024-01-07T07:13:32.410Z,4.70
2024-01-07T07:16:00.129Z,4.54
2024-01-07T07:18:29.284Z,4.45
2024-01-07T07:20:57.056Z,4.40
2024-01-07T07:23:24.727Z,4.33
2024-01-07T07:25:52.372Z,4.36
2024-01-07T07:28:20.083Z,4.79
2024-01-07T07:30:51.961Z,4.71
2024-01-07T07:33:20.443Z,4.59
2024-01-07T07:35:49.531Z,4.54
2024-01-07T07:38:17.310Z,4.72
2024-01-07T07:40:44.901Z,4.99
2024-01-07T07:43:12.600Z,4.74
2024-01-07T07:45:40.249Z,4.66
2024-01-07T07:48:08.348Z,4.79
2024-01-07T07:50:36.022Z,5.10
2024-01-07T07:53:05.165Z,5.22
2024-01-07T07:55:32.821Z,4.88
2024-01-07T07:58:00.427Z,4.89
2024-01-07T08:00:28.923Z,5.26
2024-01-07T08:02:56.685Z,5.23
2024-01-07T08:05:24.392Z,5.53
2024-01-07T08:07:52.041Z,5.62
2024-01-07T08:10:21.058Z,6.11
2024-01-07T08:12:48.724Z,5.90
2024-01-07T08:15:16.824Z,6.02
2024-01-07T08:17:44.505Z,5.81
2024-01-07T08:20:13.189Z,5.64
2024-01-07T08:22:40.961Z,5.79
2024-01-07T08:25:09.056Z,5.59
2024-01-07T08:27:38.158Z,5.92
2024-01-07T08:30:07.171Z,5.90
2024-01-07T08:32:35.185Z,5.87
2024-01-07T08:35:03.244Z,6.23
2024-01-07T08:37:30.881Z,5.91
2024-01-07T08:39:58.589Z,5.96
2024-01-07T08:42:29.858Z,6.16
2024-01-07T08:44:59.142Z,6.48
2024-01-07T08:47:26.973Z,6.28
2024-01-07T08:49:54.920Z,6.69
2024-01-07T08:52:22.687Z,6.26
2024-01-07T08:54:50.432Z,6.13
2024-01-07T08:57:18.142Z,5.79
2024-01-07T08:59:45.766Z,5.99
2024-01-07T09:02:14.773Z,6.27
2024-01-07T09:04:42.385Z,6.17
2024-01-07T09:07:10.077Z,6.12
2024-01-07T09:09:37.781Z,6.22
2024-01-07T09:12:06.236Z,6.57
2024-01-07T09:14:33.893Z,5.85
2024-01-07T09:17:01.532Z,6.47
2024-01-07T09:19:30.533Z,6.67
2024-01-07T09:21:58.272Z,6.98
2024-01-07T09:24:25.935Z,6.78
2024-01-07T09:26:53.551Z,6.41
2024-01-07T09:29:21.252Z,6.76
2024-01-07T09:31:49.031Z,6.70
2024-01-07T09:34:16.920Z,5.91
2024-01-07T09:36:46.026Z,6.50
2024-01-07T09:39:13.667Z,6.54
2024-01-07T09:41:41.481Z,6.43
2024-01-07T09:44:09.881Z,6.60
2024-01-07T09:46:40.664Z,7.08
2024-01-07T09:49:08.524Z,7.27
2024-01-07T09:51:37.039Z,6.67
2024-01-07T09:54:10.355Z,7.24
2024-01-07T09:56:43.517Z,6.34
2024-01-07T09:59:12.077Z,6.41
2024-01-07T10:01:40.851Z,6.49
2024-01-07T10:04:08.785Z,6.19
2024-01-07T10:06:36.594Z,6.36
2024-01-07T10:09:06.503Z,5.80
2024-01-07T10:11:34.915Z,5.35
2024-01-07T10:14:02.587Z,6.14
2024-01-07T10:16:30.232Z,6.70
2024-01-07T10:18:57.990Z,6.47
2024-01-07T10:21:25.896Z,6.17
2024-01-07T10:24:10.041Z,6.54
2024-01-07T10:26:39.461Z,6.37
2024-01-07T10:29:07.945Z,6.80
2024-01-07T10:31:39.284Z,5.95
2024-01-07T10:34:08.827Z,6.18
2024-01-07T10:36:37.102Z,6.54
2024-01-07T10:39:04.753Z,6.78
2024-01-07T10:41:38.372Z,6.86
2024-01-07T10:44:06.117Z,6.38
2024-01-07T10:46:34.603Z,6.46
2024-01-07T10:49:08.580Z,6.44
2024-01-07T10:51:37.034Z,6.62
2024-01-07T10:54:05.198Z,6.40
2024-01-07T10:56:43.912Z,6.77
2024-01-07T10:59:11.653Z,7.23
2024-01-07T11:01:39.352Z,6.56
2024-01-07T11:04:15.957Z,6.39
2024-01-07T11:06:52.203Z,7.01
2024-01-07T11:09:27.677Z,6.98
2024-01-07T11:11:58.036Z,7.48
2024-01-07T11:14:42.148Z,7.83
2024-01-07T11:17:10.073Z,7.15
2024-01-07T11:19:38.309Z,7.90
2024-01-07T11:22:25.215Z,6.98
2024-01-07T11:24:54.442Z,7.79
2024-01-07T11:27:24.319Z,7.39
2024-01-07T11:29:55.091Z,7.18
2024-01-07T11:32:23.899Z,6.87
2024-01-07T11:34:52.111Z,6.32
2024-01-07T11:37:20.575Z,6.73
2024-01-07T11:39:50.028Z,6.68
2024-01-07T11:42:18.422Z,6.08
2024-01-07T11:44:48.403Z,6.01
2024-01-07T11:47:17.043Z,6.45
2024-01-07T11:49:45.557Z,6.24
2024-01-07T11:52:13.672Z,6.49
2024-01-07T11:54:42.838Z,5.95
2024-01-07T11:57:11.763Z,6.83
2024-01-07T11:59:41.697Z,6.61
2024-01-07T12:02:12.307Z,7.03
2024-01-07T12:04:39.950Z,6.67
2024-01-07T12:07:07.756Z,7.43
2024-01-07T12:09:35.632Z,7.16
2024-01-07T12:12:04.351Z,6.45
2024-01-07T12:14:32.509Z,6.97
2024-01-07T12:17:00.269Z,7.27
2024-01-07T12:19:29.797Z,7.23
2024-01-07T12:22:03.330Z,7.49
2024-01-07T12:24:31.274Z,7.59
2024-01-07T12:27:04.954Z,7.12
2024-01-07T12:29:32.677Z,6.95
2024-01-07T12:32:00.607Z,7.16
2024-01-07T12:34:29.858Z,6.53
2024-01-07T12:36:57.583Z,7.04
2024-01-07T12:39:28.163Z,7.08
2024-01-07T12:41:56.345Z,7.00
2024-01-07T12:44:28.767Z,7.23
2024-01-07T12:46:56.456Z,7.07
2024-01-07T12:49:24.247Z,7.62
2024-01-07T12:51:53.472Z,6.88
2024-01-07T12:54:21.411Z,6.25
2024-01-07T12:56:49.060Z,6.73
2024-01-07T12:59:16.766Z,7.10
2024-01-07T13:01:44.904Z,6.66
2024-01-07T13:04:12.857Z,7.24
2024-01-07T13:06:40.723Z,7.34
2024-01-07T13:09:09.789Z,6.93
2024-01-07T13:11:37.615Z,6.74
2024-01-07T13:14:05.331Z,6.05
2024-01-07T13:16:33.028Z,6.08
2024-01-07T13:19:00.781Z,5.79
2024-01-07T13:21:28.614Z,6.23
2024-01-07T13:23:56.283Z,6.84
2024-01-07T13:26:25.250Z,6.06
2024-01-07T13:28:52.942Z,6.08
2024-01-07T13:31:20.926Z,6.60
2024-01-07T13:33:48.955Z,6.17
2024-01-07T13:36:16.759Z,6.23
2024-01-07T13:38:45.861Z,6.49
2024-01-07T13:41:14.456Z,6.49
2024-01-07T13:43:43.619Z,6.53
2024-01-07T13:46:11.317Z,6.86
2024-01-07T13:48:39.300Z,6.55
2024-01-07T13:51:07.086Z,6.74
2024-01-07T13:53:34.735Z,6.97
2024-01-07T13:56:02.441Z,6.11
2024-01-07T13:58:30.107Z,5.82
2024-01-07T14:00:59.191Z,6.44
2024-01-07T14:03:26.884Z,5.93
2024-01-07T14:05:55.075Z,6.41
2024-01-07T14:08:22.725Z,6.72
2024-01-07T14:10:50.429Z,6.26
2024-01-07T14:13:18.143Z,6.43
2024-01-07T14:15:45.848Z,5.91
2024-01-07T14:18:14.895Z,6.28
2024-01-07T14:20:42.617Z,6.67
2024-01-07T14:23:10.290Z,5.94
2024-01-07T14:25:37.919Z,5.82
2024-01-07T14:28:05.957Z,5.90
2024-01-07T14:30:33.752Z,6.47
2024-01-07T14:33:01.506Z,6.33
2024-01-07T14:35:30.538Z,6.58
2024-01-07T14:37:59.279Z,6.93
2024-01-07T14:40:26.960Z,6.57
2024-01-07T14:42:54.676Z,6.79
2024-01-07T14:45:22.428Z,6.58
2024-01-07T14:47:50.198Z,6.95
2024-01-07T14:50:19.397Z,6.67
2024-01-07T14:52:49.683Z,6.83
2024-01-07T14:55:18.718Z,6.43
2024-01-07T14:57:46.521Z,6.71
2024-01-07T15:00:14.671Z,7.15
2024-01-07T15:02:42.369Z,7.03
2024-01-07T15:05:10.497Z,6.97
2024-01-07T15:07:38.270Z,6.73
2024-01-07T15:10:08.458Z,6.74
2024-01-07T15:12:36.153Z,6.41
2024-01-07T15:15:04.238Z,6.89
2024-01-07T15:17:32.159Z,6.78
2024-01-07T15:19:59.896Z,6.98
2024-01-07T15:22:27.632Z,6.32
2024-01-07T15:24:55.375Z,6.35
2024-01-07T15:27:24.431Z,6.35
2024-01-07T15:29:52.045Z,6.04
2024-01-07T15:32:19.687Z,6.16
2024-01-07T15:34:47.408Z,6.35
2024-01-07T15:37:15.089Z,6.35
2024-01-07T15:39:42.791Z,6.14
2024-01-07T15:42:10.514Z,5.69
2024-01-07T15:44:39.483Z,5.84
2024-01-07T15:47:07.124Z,5.63
2024-01-07T15:49:34.990Z,5.70
2024-01-07T15:52:02.905Z,5.79
2024-01-07T15:54:30.558Z,5.91
2024-01-07T15:56:58.242Z,5.26
2024-01-07T15:59:25.963Z,5.61
2024-01-07T16:01:55.216Z,5.67
2024-01-07T16:04:24.425Z,5.46
2024-01-07T16:06:52.751Z,5.78
2024-01-07T16:09:20.450Z,5.52
2024-01-07T16:11:48.061Z,5.75
2024-01-07T16:14:15.775Z,5.44
2024-01-07T16:16:43.381Z,5.50
2024-01-07T16:19:12.574Z,5.85
2024-01-07T16:21:41.346Z,5.57
2024-01-07T16:24:09.160Z,5.77
2024-01-07T16:26:37.020Z,5.77
2024-01-07T16:29:04.677Z,5.65
2024-01-07T16:31:32.422Z,5.86
2024-01-07T16:34:00.227Z,5.46
2024-01-07T16:36:29.330Z,5.32
2024-01-07T16:38:56.979Z,5.57
2024-01-07T16:41:24.736Z,5.31
2024-01-07T16:43:52.393Z,5.39
2024-01-07T16:46:20.141Z,5.13
2024-01-07T16:51:18.432Z,5.23
2024-01-07T16:53:47.463Z,5.28
2024-01-07T16:56:17.065Z,5.15
2024-01-07T16:58:44.815Z,5.34
2024-01-07T17:01:12.536Z,5.46
2024-01-07T17:03:40.253Z,5.11
2024-01-07T17:06:08.032Z,5.32
2024-01-07T17:08:35.795Z,5.46
2024-01-07T17:11:05.168Z,5.43
2024-01-07T17:13:32.840Z,5.39
2024-01-07T17:16:00.464Z,5.44
2024-01-07T17:18:28.352Z,5.70
2024-01-07T17:20:56.037Z,5.55
2024-01-07T17:23:23.759Z,5.72
2024-01-07T17:25:51.452Z,5.66
2024-01-07T17:28:20.595Z,5.36
2024-01-07T17:30:48.329Z,5.58
2024-01-07T17:33:16.094Z,5.34
2024-01-07T17:35:44.295Z,5.53
2024-01-07T17:38:11.974Z,5.29
2024-01-07T17:40:39.634Z,5.28
2024-01-07T17:43:07.248Z,5.24
2024-01-07T17:45:36.254Z,4.99
2024-01-07T17:48:04.687Z,4.86
2024-01-07T17:50:32.416Z,4.98
2024-01-07T17:53:00.120Z,5.21
2024-01-07T17:55:27.772Z,4.50
2024-01-07T17:57:55.463Z,4.36
2024-01-07T18:00:23.356Z,4.48
2024-01-07T18:02:52.357Z,4.45
2024-01-07T18:05:20.121Z,4.22
2024-01-07T18:07:47.991Z,4.66
2024-01-07T18:10:15.993Z,4.10
2024-01-07T18:12:43.616Z,4.61
2024-01-07T18:15:11.286Z,4.56
2024-01-07T18:17:38.990Z,4.28
2024-01-07T18:20:08.748Z,4.21
2024-01-07T18:22:36.374Z,3.83
2024-01-07T18:25:04.316Z,4.21
2024-01-07T18:27:32.014Z,4.46
2024-01-07T18:29:59.791Z,4.68
2024-01-07T18:32:27.745Z,4.76
2024-01-07T18:34:55.756Z,4.52
2024-01-07T18:37:25.121Z,4.45
2024-01-07T18:39:52.838Z,4.27
2024-01-07T18:42:20.450Z,4.41
2024-01-07T18:44:48.061Z,4.53
2024-01-07T18:47:15.726Z,4.63
2024-01-07T18:49:43.419Z,4.49
2024-01-07T18:52:11.201Z,4.26
2024-01-07T18:54:40.915Z,4.31
2024-01-07T18:57:08.607Z,4.63
2024-01-07T18:59:36.834Z,4.49
2024-01-07T19:02:04.771Z,4.59
2024-01-07T19:04:32.677Z,4.59
2024-01-07T19:07:00.405Z,4.30
2024-01-07T19:09:28.148Z,4.43
2024-01-07T19:11:57.164Z,4.41
2024-01-07T19:14:24.841Z,4.29
2024-01-07T19:16:52.703Z,4.12
2024-01-07T19:19:20.617Z,4.06
2024-01-07T19:21:48.451Z,4.19
2024-01-07T19:24:16.093Z,3.63
2024-01-07T19:26:45.576Z,3.84
2024-01-07T19:29:14.881Z,4.19
2024-01-07T19:31:42.649Z,4.10
2024-01-07T19:34:10.435Z,3.72
2024-01-07T19:36:40.894Z,3.92
2024-01-07T19:39:10.174Z,3.95
2024-01-07T19:41:38.602Z,3.79
2024-01-07T19:44:06.303Z,3.80
2024-01-07T19:46:35.556Z,3.74
2024-01-07T19:49:04.794Z,3.63
2024-01-07T19:51:32.841Z,3.39
2024-01-07T19:54:00.591Z,3.53
2024-01-07T19:56:28.322Z,3.80
2024-01-07T19:58:56.015Z,3.59
2024-01-07T20:01:23.678Z,3.81
2024-01-07T20:03:52.778Z,3.53
2024-01-07T20:06:20.549Z,3.94
2024-01-07T20:08:48.759Z,3.98
2024-01-07T20:11:20.223Z,3.93
2024-01-07T20:13:49.083Z,3.94
2024-01-07T20:16:18.450Z,3.60
2024-01-07T20:18:52.035Z,3.95
2024-01-07T20:21:23.840Z,3.87
2024-01-07T20:23:53.292Z,4.05
2024-01-07T20:26:21.022Z,3.75
2024-01-07T20:28:48.778Z,3.61
2024-01-07T20:31:17.089Z,3.41
2024-01-07T20:33:45.329Z,3.50
2024-01-07T20:36:13.105Z,3.55
2024-01-07T20:38:42.863Z,3.31
2024-01-07T20:41:11.726Z,3.01
2024-01-07T20:43:40.461Z,3.09
2024-01-07T20:46:08.676Z,3.03
2024-01-07T20:48:37.172Z,3.28
2024-01-07T20:51:06.147Z,3.31
2024-01-07T20:53:34.115Z,3.13
2024-01-07T20:56:03.374Z,3.20
2024-01-07T20:58:31.706Z,3.03
2024-01-07T21:00:59.444Z,3.18
2024-01-07T21:03:27.265Z,2.85
2024-01-07T21:05:55.276Z,2.93
2024-01-07T21:08:23.125Z,2.73
2024-01-07T21:10:50.983Z,3.11
2024-01-07T21:13:20.206Z,3.06
2024-01-07T21:15:47.917Z,3.05
2024-01-07T21:18:15.810Z,3.16
2024-01-07T21:20:43.644Z,3.07
2024-01-07T21:23:11.364Z,3.15
2024-01-07T21:25:39.057Z,3.05
2024-01-07T21:28:06.720Z,3.10
2024-01-07T21:30:35.800Z,3.12
2024-01-07T21:33:04.015Z,2.76
2024-01-07T21:35:32.268Z,3.20
2024-01-07T21:38:00.016Z,3.18
2024-01-07T21:40:30.088Z,2.85
2024-01-07T21:42:57.862Z,3.16
2024-01-07T21:45:25.535Z,3.17
2024-01-07T21:47:54.611Z,2.89
2024-01-07T21:50:22.360Z,2.84
2024-01-07T21:52:55.273Z,2.98
2024-01-07T21:55:23.275Z,3.08
2024-01-07T21:57:51.027Z,3.24
2024-01-07T22:00:19.130Z,2.58
2024-01-07T22:02:47.014Z,2.74
2024-01-07T22:05:16.347Z,2.69
2024-01-07T22:07:44.201Z,2.97
2024-01-07T22:10:12.144Z,3.03
2024-01-07T22:12:39.810Z,3.05
2024-01-07T22:15:09.319Z,2.83
2024-01-07T22:17:37.125Z,2.91
2024-01-07T22:20:05.767Z,2.60
2024-01-07T22:22:34.860Z,2.83
2024-01-07T22:25:02.659Z,2.87
2024-01-07T22:27:30.317Z,2.82
2024-01-07T22:29:57.973Z,2.48
2024-01-07T22:32:25.698Z,2.92
2024-01-07T22:34:53.397Z,2.66
2024-01-07T22:37:21.034Z,2.80
2024-01-07T22:39:50.139Z,3.04
2024-01-07T22:42:17.785Z,2.83
2024-01-07T22:44:45.449Z,2.84
2024-01-07T22:47:13.135Z,2.96
2024-01-07T22:49:40.759Z,3.09
2024-01-07T22:52:08.388Z,2.57
2024-01-07T22:54:38.712Z,2.75
2024-01-07T22:57:07.849Z,2.36
2024-01-07T22:59:35.529Z,2.69
2024-01-07T23:02:03.547Z,2.47
2024-01-07T23:04:31.281Z,2.43
2024-01-07T23:06:59.013Z,2.45
2024-01-07T23:09:26.682Z,2.29
2024-01-07T23:11:54.336Z,2.53
2024-01-07T23:14:23.442Z,2.59
2024-01-07T23:16:51.145Z,2.74
2024-01-07T23:19:19.060Z,2.58
2024-01-07T23:21:46.811Z,2.59
2024-01-07T23:24:14.678Z,2.59
2024-01-07T23:26:42.332Z,2.24
2024-01-07T23:29:10.012Z,2.30
2024-01-07T23:31:39.098Z,2.22
2024-01-07T23:34:07.028Z,2.49
2024-01-07T23:36:34.742Z,2.58
2024-01-07T23:39:02.434Z,2.28
2024-01-07T23:41:30.318Z,2.35
2024-01-07T23:43:58.067Z,2.27
2024-01-07T23:46:25.932Z,2.33
2024-01-07T23:48:55.380Z,2.39
2024-01-07T23:51:23.065Z,2.10
2024-01-07T23:53:50.821Z,1.94
2024-01-07T23:56:18.518Z,1.98
2024-01-07T23:58:46.239Z,2.20
